Wetterdaten: aktuell Dienstag, 15.06.2021 22:15
Datum Zeit Temp. A. Temp. A. min Temp. A. max Feuchte A. Luftdruck Regen Wind Richtung Richtung Sonnenschein UV Solar Windben
15.06.2021 22:15 21,7 C 21,6 C 21,7 C 57 % 1019,6 hPa 0,0 l/m 6,4 km/h (2 Bft) N-NO 22 0 min 0,0 UV-I 0 W/m 8,0 km/h (2 Bft)
15.06.2021 22:10 21,7 C 21,7 C 21,8 C 57 % 1019,6 hPa 0,0 l/m 4,8 km/h (1 Bft) N-NO 22 0 min 0,0 UV-I 0 W/m 11,3 km/h (2 Bft)
15.06.2021 22:05 21,8 C 21,8 C 21,9 C 57 % 1019,4 hPa 0,0 l/m 4,8 km/h (1 Bft) N-NO 22 0 min 0,0 UV-I 0 W/m 8,0 km/h (2 Bft)
15.06.2021 22:00 21,9 C 21,9 C 22,1 C 56 % 1019,4 hPa 0,0 l/m 4,8 km/h (1 Bft) N-NO 22 0 min 0,0 UV-I 5 W/m 9,7 km/h (2 Bft)
15.06.2021 21:55 22,1 C 22,1 C 22,2 C 56 % 1019,4 hPa 0,0 l/m 4,8 km/h (1 Bft) N-NO 22 0 min 0,0 UV-I 5 W/m 11,3 km/h (2 Bft)
15.06.2021 21:50 22,2 C 22,2 C 22,3 C 55 % 1019,4 hPa 0,0 l/m 4,8 km/h (1 Bft) N-NO 22 0 min 0,0 UV-I 5 W/m 8,0 km/h (2 Bft)
15.06.2021 21:45 22,3 C 22,3 C 22,4 C 55 % 1019,4 hPa 0,0 l/m 6,4 km/h (2 Bft) N-NO 22 0 min 0,0 UV-I 7 W/m 11,3 km/h (2 Bft)
15.06.2021 21:40 22,4 C 22,4 C 22,6 C 54 % 1019,4 hPa 0,0 l/m 6,4 km/h (2 Bft) N 360 0 min 0,0 UV-I 12 W/m 11,3 km/h (2 Bft)
15.06.2021 21:35 22,6 C 22,6 C 22,7 C 54 % 1019,4 hPa 0,0 l/m 6,4 km/h (2 Bft) N-NO 22 5 min 0,0 UV-I 16 W/m 11,3 km/h (2 Bft)
15.06.2021 21:30 22,7 C 22,7 C 22,8 C 54 % 1019,4 hPa 0,0 l/m 6,4 km/h (2 Bft) N-NO 22 5 min 0,0 UV-I 19 W/m 12,9 km/h (3 Bft)
15.06.2021 21:25 22,8 C 22,8 C 22,9 C 55 % 1019,4 hPa 0,0 l/m 4,8 km/h (1 Bft) N-NO 22 5 min 0,0 UV-I 25 W/m 12,9 km/h (3 Bft)
15.06.2021 21:20 22,9 C 22,9 C 23,0 C 55 % 1019,4 hPa 0,0 l/m 4,8 km/h (1 Bft) N-NO 22 0 min 0,0 UV-I 26 W/m 11,3 km/h (2 Bft)
15.06.2021 21:15 23,0 C 23,0 C 23,1 C 53 % 1019,3 hPa 0,0 l/m 6,4 km/h (2 Bft) N-NO 22 0 min 0,0 UV-I 32 W/m 14,5 km/h (3 Bft)
15.06.2021 21:10 23,1 C 23,1 C 23,2 C 53 % 1019,4 hPa 0,0 l/m 6,4 km/h (2 Bft) N-NO 22 0 min 0,0 UV-I 33 W/m 11,3 km/h (2 Bft)
15.06.2021 21:05 23,2 C 23,2 C 23,2 C 53 % 1019,4 hPa 0,0 l/m 6,4 km/h (2 Bft) N-NO 22 0 min 0,0 UV-I 33 W/m 16,1 km/h (3 Bft)
15.06.2021 21:00 23,3 C 23,2 C 23,3 C 53 % 1019,4 hPa 0,0 l/m 4,8 km/h (1 Bft) N-NO 22 0 min 0,0 UV-I 35 W/m 16,1 km/h (3 Bft)
15.06.2021 20:55 23,3 C 23,3 C 23,5 C 53 % 1019,4 hPa 0,0 l/m 6,4 km/h (2 Bft) N-NO 22 0 min 0,0 UV-I 39 W/m 14,5 km/h (3 Bft)
15.06.2021 20:50 23,5 C 23,5 C 23,7 C 53 % 1019,4 hPa 0,0 l/m 4,8 km/h (1 Bft) N-NO 22 0 min 0,0 UV-I 46 W/m 8,0 km/h (2 Bft)
15.06.2021 20:45 23,7 C 23,7 C 23,8 C 52 % 1019,4 hPa 0,0 l/m 4,8 km/h (1 Bft) N-NO 22 0 min 0,0 UV-I 53 W/m 14,5 km/h (3 Bft)
15.06.2021 20:40 23,8 C 23,8 C 24,0 C 50 % 1019,4 hPa 0,0 l/m 4,8 km/h (1 Bft) N-NO 22 0 min 0,0 UV-I 58 W/m 11,3 km/h (2 Bft)
15.06.2021 20:35 24,0 C 23,9 C 24,1 C 51 % 1019,3 hPa 0,0 l/m 4,8 km/h (1 Bft) N-NO 22 0 min 0,0 UV-I 72 W/m 8,0 km/h (2 Bft)
15.06.2021 20:30 24,1 C 24,1 C 24,2 C 50 % 1019,4 hPa 0,0 l/m 6,4 km/h (2 Bft) N-NO 22 5 min 0,0 UV-I 98 W/m 14,5 km/h (3 Bft)
15.06.2021 20:25 24,2 C 24,2 C 24,3 C 49 % 1019,4 hPa 0,0 l/m 6,4 km/h (2 Bft) NO 45 5 min 0,0 UV-I 100 W/m 14,5 km/h (3 Bft)
15.06.2021 20:20 24,3 C 24,3 C 24,3 C 50 % 1019,4 hPa 0,0 l/m 6,4 km/h (2 Bft) N-NO 22 0 min 0,0 UV-I 105 W/m 14,5 km/h (3 Bft)
15.06.2021 20:15 24,3 C 24,3 C 24,4 C 49 % 1019,4 hPa 0,0 l/m 8,0 km/h (2 Bft) N-NO 22 5 min 0,0 UV-I 113 W/m 16,1 km/h (3 Bft)
15.06.2021 20:10 24,4 C 24,3 C 24,4 C 50 % 1019,3 hPa 0,0 l/m 4,8 km/h (1 Bft) N-NO 22 5 min 0,0 UV-I 125 W/m 12,9 km/h (3 Bft)
15.06.2021 20:05 24,4 C 24,4 C 24,4 C 52 % 1019,4 hPa 0,0 l/m 3,2 km/h (1 Bft) N-NO 22 5 min 0,5 UV-I 137 W/m 8,0 km/h (2 Bft)
15.06.2021 20:00 24,4 C 24,4 C 24,5 C 51 % 1019,4 hPa 0,0 l/m 4,8 km/h (1 Bft) NW 315 5 min 0,5 UV-I 149 W/m 14,5 km/h (3 Bft)
15.06.2021 19:55 24,4 C 24,4 C 24,6 C 50 % 1019,5 hPa 0,0 l/m 3,2 km/h (1 Bft) W-NW 292 5 min 0,6 UV-I 165 W/m 6,4 km/h (2 Bft)
15.06.2021 19:50 24,7 C 24,7 C 24,9 C 49 % 1019,5 hPa 0,0 l/m 3,2 km/h (1 Bft) N-NO 22 5 min 0,6 UV-I 163 W/m 8,0 km/h (2 Bft)
15.06.2021 19:45 24,9 C 24,9 C 25,1 C 51 % 1019,5 hPa 0,0 l/m 4,8 km/h (1 Bft) N 360 5 min 0,7 UV-I 192 W/m 8,0 km/h (2 Bft)
15.06.2021 19:40 25,1 C 24,9 C 25,1 C 49 % 1019,5 hPa 0,0 l/m 4,8 km/h (1 Bft) N 360 5 min 0,7 UV-I 211 W/m 14,5 km/h (3 Bft)
15.06.2021 19:35 24,9 C 24,9 C 25,1 C 48 % 1019,6 hPa 0,0 l/m 8,0 km/h (2 Bft) N-NO 22 5 min 0,7 UV-I 223 W/m 16,1 km/h (3 Bft)
15.06.2021 19:30 25,1 C 25,1 C 25,3 C 49 % 1019,6 hPa 0,0 l/m 6,4 km/h (2 Bft) N-NO 22 5 min 0,8 UV-I 225 W/m 17,7 km/h (3 Bft)
15.06.2021 19:25 25,2 C 25,2 C 25,3 C 49 % 1019,6 hPa 0,0 l/m 4,8 km/h (1 Bft) N-NO 22 5 min 0,8 UV-I 225 W/m 9,7 km/h (2 Bft)
15.06.2021 19:20 25,3 C 25,3 C 25,3 C 50 % 1019,7 hPa 0,0 l/m 4,8 km/h (1 Bft) N-NO 22 5 min 0,9 UV-I 236 W/m 14,5 km/h (3 Bft)
15.06.2021 19:15 25,3 C 25,3 C 25,6 C 48 % 1019,7 hPa 0,0 l/m 6,4 km/h (2 Bft) N 360 5 min 1,0 UV-I 264 W/m 14,5 km/h (3 Bft)
15.06.2021 19:10 25,5 C 25,5 C 25,6 C 49 % 1019,7 hPa 0,0 l/m 8,0 km/h (2 Bft) N 360 5 min 1,0 UV-I 285 W/m 14,5 km/h (3 Bft)
15.06.2021 19:05 25,5 C 25,4 C 25,5 C 49 % 1019,7 hPa 0,0 l/m 4,8 km/h (1 Bft) W 270 5 min 1,1 UV-I 297 W/m 12,9 km/h (3 Bft)
15.06.2021 19:00 25,4 C 25,4 C 25,6 C 50 % 1019,8 hPa 0,0 l/m 8,0 km/h (2 Bft) N-NO 22 5 min 1,2 UV-I 299 W/m 17,7 km/h (3 Bft)
15.06.2021 18:55 25,5 C 25,4 C 25,6 C 49 % 1019,8 hPa 0,0 l/m 8,0 km/h (2 Bft) N-NO 22 5 min 1,2 UV-I 338 W/m 17,7 km/h (3 Bft)
15.06.2021 18:50 25,4 C 25,4 C 25,5 C 51 % 1019,8 hPa 0,0 l/m 6,4 km/h (2 Bft) N 360 5 min 1,3 UV-I 330 W/m 14,5 km/h (3 Bft)
15.06.2021 18:45 25,5 C 25,5 C 25,8 C 48 % 1019,8 hPa 0,0 l/m 6,4 km/h (2 Bft) N-NO 22 5 min 1,3 UV-I 288 W/m 14,5 km/h (3 Bft)
15.06.2021 18:40 25,8 C 25,8 C 26,0 C 50 % 1019,8 hPa 0,0 l/m 4,8 km/h (1 Bft) N-NO 22 5 min 1,4 UV-I 315 W/m 16,1 km/h (3 Bft)
15.06.2021 18:35 26,0 C 25,9 C 26,0 C 47 % 1019,8 hPa 0,0 l/m 8,0 km/h (2 Bft) N-NO 22 5 min 1,4 UV-I 388 W/m 19,3 km/h (3 Bft)
15.06.2021 18:30 25,9 C 25,8 C 25,9 C 48 % 1019,8 hPa 0,0 l/m 6,4 km/h (2 Bft) N-NO 22 5 min 1,5 UV-I 401 W/m 14,5 km/h (3 Bft)
15.06.2021 18:25 25,9 C 25,8 C 25,9 C 48 % 1019,9 hPa 0,0 l/m 6,4 km/h (2 Bft) N-NO 22 5 min 1,5 UV-I 367 W/m 12,9 km/h (3 Bft)
15.06.2021 18:20 26,0 C 25,9 C 26,0 C 47 % 1019,9 hPa 0,0 l/m 8,0 km/h (2 Bft) N 360 5 min 1,6 UV-I 346 W/m 16,1 km/h (3 Bft)
15.06.2021 18:15 25,9 C 25,8 C 25,9 C 50 % 1019,9 hPa 0,0 l/m 4,8 km/h (1 Bft) N 360 5 min 1,8 UV-I 497 W/m 12,9 km/h (3 Bft)
15.06.2021 18:10 25,9 C 25,8 C 26,1 C 48 % 1019,9 hPa 0,0 l/m 4,8 km/h (1 Bft) NW 315 5 min 1,7 UV-I 348 W/m 12,9 km/h (3 Bft)
15.06.2021 18:05 26,1 C 26,0 C 26,1 C 47 % 1019,9 hPa 0,0 l/m 4,8 km/h (1 Bft) NO 45 5 min 1,8 UV-I 404 W/m 17,7 km/h (3 Bft)
15.06.2021 18:00 26,0 C 25,9 C 26,0 C 48 % 1019,9 hPa 0,0 l/m 8,0 km/h (2 Bft) N-NO 22 5 min 2,0 UV-I 462 W/m 16,1 km/h (3 Bft)
15.06.2021 17:55 25,9 C 25,9 C 25,9 C 47 % 1019,9 hPa 0,0 l/m 9,7 km/h (2 Bft) N 360 5 min 2,0 UV-I 471 W/m 14,5 km/h (3 Bft)
15.06.2021 17:50 25,9 C 25,8 C 25,9 C 48 % 1019,9 hPa 0,0 l/m 4,8 km/h (1 Bft) NO 45 5 min 2,2 UV-I 485 W/m 17,7 km/h (3 Bft)
15.06.2021 17:45 25,8 C 25,8 C 25,9 C 47 % 1020,0 hPa 0,0 l/m 6,4 km/h (2 Bft) N 360 5 min 2,2 UV-I 501 W/m 17,7 km/h (3 Bft)
15.06.2021 17:40 25,9 C 25,8 C 25,9 C 46 % 1020,0 hPa 0,0 l/m 11,3 km/h (2 Bft) N-NO 22 5 min 2,3 UV-I 492 W/m 17,7 km/h (3 Bft)
15.06.2021 17:35 25,8 C 25,8 C 25,9 C 48 % 1020,0 hPa 0,0 l/m 6,4 km/h (2 Bft) N-NW 337 5 min 2,4 UV-I 510 W/m 17,7 km/h (3 Bft)
15.06.2021 17:30 25,9 C 25,9 C 26,1 C 46 % 1020,1 hPa 0,0 l/m 11,3 km/h (2 Bft) N-NO 22 5 min 2,6 UV-I 519 W/m 17,7 km/h (3 Bft)
15.06.2021 17:25 26,1 C 25,9 C 26,1 C 46 % 1020,1 hPa 0,0 l/m 8,0 km/h (2 Bft) NO 45 5 min 2,7 UV-I 538 W/m 19,3 km/h (3 Bft)
15.06.2021 17:20 25,8 C 25,8 C 25,9 C 45 % 1020,1 hPa 0,0 l/m 9,7 km/h (2 Bft) N-NO 22 5 min 2,7 UV-I 533 W/m 16,1 km/h (3 Bft)
15.06.2021 17:15 25,8 C 25,8 C 25,9 C 45 % 1020,2 hPa 0,0 l/m 9,7 km/h (2 Bft) N-NO 22 5 min 2,8 UV-I 545 W/m 17,7 km/h (3 Bft)
15.06.2021 17:10 25,8 C 25,6 C 25,8 C 47 % 1020,3 hPa 0,0 l/m 8,0 km/h (2 Bft) N-NW 337 5 min 2,8 UV-I 564 W/m 17,7 km/h (3 Bft)
15.06.2021 17:05 25,6 C 25,6 C 25,7 C 47 % 1020,2 hPa 0,0 l/m 6,4 km/h (2 Bft) NW 315 5 min 2,9 UV-I 548 W/m 11,3 km/h (2 Bft)
15.06.2021 17:00 25,7 C 25,7 C 25,8 C 47 % 1020,3 hPa 0,0 l/m 4,8 km/h (1 Bft) N-NW 337 5 min 3,2 UV-I 606 W/m 11,3 km/h (2 Bft)
15.06.2021 16:55 25,8 C 25,8 C 25,9 C 45 % 1020,4 hPa 0,0 l/m 6,4 km/h (2 Bft) NW 315 5 min 3,2 UV-I 605 W/m 16,1 km/h (3 Bft)
15.06.2021 16:50 25,9 C 25,7 C 25,9 C 46 % 1020,4 hPa 0,0 l/m 6,4 km/h (2 Bft) NW 315 5 min 3,1 UV-I 550 W/m 14,5 km/h (3 Bft)
15.06.2021 16:45 25,7 C 25,7 C 25,8 C 45 % 1020,5 hPa 0,0 l/m 6,4 km/h (2 Bft) N-NW 337 5 min 3,1 UV-I 543 W/m 14,5 km/h (3 Bft)
15.06.2021 16:40 25,8 C 25,8 C 25,9 C 45 % 1020,5 hPa 0,0 l/m 9,7 km/h (2 Bft) N 360 5 min 3,6 UV-I 603 W/m 19,3 km/h (3 Bft)
15.06.2021 16:35 25,9 C 25,8 C 25,9 C 45 % 1020,6 hPa 0,0 l/m 8,0 km/h (2 Bft) N-NO 22 5 min 3,8 UV-I 687 W/m 17,7 km/h (3 Bft)
15.06.2021 16:30 25,8 C 25,8 C 26,0 C 46 % 1020,7 hPa 0,0 l/m 8,0 km/h (2 Bft) N-NO 22 5 min 3,9 UV-I 754 W/m 16,1 km/h (3 Bft)
15.06.2021 16:25 26,0 C 25,9 C 26,1 C 45 % 1020,7 hPa 0,0 l/m 6,4 km/h (2 Bft) N-NO 22 5 min 3,2 UV-I 751 W/m 16,1 km/h (3 Bft)
15.06.2021 16:20 25,9 C 25,8 C 26,0 C 44 % 1020,7 hPa 0,0 l/m 8,0 km/h (2 Bft) N-NO 22 5 min 4,2 UV-I 809 W/m 16,1 km/h (3 Bft)
15.06.2021 16:15 25,8 C 25,6 C 25,9 C 47 % 1020,7 hPa 0,0 l/m 6,4 km/h (2 Bft) N-NW 337 5 min 4,1 UV-I 744 W/m 14,5 km/h (3 Bft)
15.06.2021 16:10 25,7 C 25,4 C 25,7 C 45 % 1020,8 hPa 0,0 l/m 9,7 km/h (2 Bft) NO 45 5 min 4,1 UV-I 698 W/m 17,7 km/h (3 Bft)
15.06.2021 16:05 25,4 C 25,3 C 25,4 C 47 % 1020,8 hPa 0,0 l/m 6,4 km/h (2 Bft) NW 315 5 min 4,0 UV-I 589 W/m 19,3 km/h (3 Bft)
15.06.2021 16:00 25,3 C 25,1 C 25,3 C 46 % 1021,0 hPa 0,0 l/m 8,0 km/h (2 Bft) N-NO 22 5 min 3,7 UV-I 487 W/m 14,5 km/h (3 Bft)
15.06.2021 15:55 25,1 C 25,1 C 25,4 C 47 % 1020,9 hPa 0,0 l/m 8,0 km/h (2 Bft) N-NO 22 5 min 3,7 UV-I 510 W/m 14,5 km/h (3 Bft)
15.06.2021 15:50 25,4 C 25,4 C 25,5 C 47 % 1020,9 hPa 0,0 l/m 6,4 km/h (2 Bft) N 360 5 min 4,0 UV-I 624 W/m 14,5 km/h (3 Bft)
15.06.2021 15:45 25,5 C 25,5 C 25,6 C 46 % 1021,0 hPa 0,0 l/m 8,0 km/h (2 Bft) N 360 5 min 3,7 UV-I 615 W/m 14,5 km/h (3 Bft)
15.06.2021 15:40 25,6 C 25,4 C 25,6 C 45 % 1021,0 hPa 0,0 l/m 11,3 km/h (2 Bft) O-NO 67 5 min 4,6 UV-I 779 W/m 22,5 km/h (4 Bft)
15.06.2021 15:35 25,3 C 25,2 C 25,4 C 48 % 1021,0 hPa 0,0 l/m 6,4 km/h (2 Bft) N-NO 22 5 min 4,5 UV-I 724 W/m 17,7 km/h (3 Bft)
15.06.2021 15:30 25,3 C 25,0 C 25,3 C 46 % 1021,1 hPa 0,0 l/m 8,0 km/h (2 Bft) N-NO 22 5 min 4,3 UV-I 452 W/m 14,5 km/h (3 Bft)
15.06.2021 15:25 25,0 C 24,9 C 25,0 C 47 % 1021,1 hPa 0,0 l/m 9,7 km/h (2 Bft) N-NO 22 5 min 4,4 UV-I 735 W/m 17,7 km/h (3 Bft)
15.06.2021 15:20 24,9 C 24,9 C 25,1 C 48 % 1021,1 hPa 0,0 l/m 6,4 km/h (2 Bft) N-NO 22 5 min 4,4 UV-I 482 W/m 14,5 km/h (3 Bft)
15.06.2021 15:15 25,2 C 25,1 C 25,2 C 47 % 1021,1 hPa 0,0 l/m 9,7 km/h (2 Bft) N 360 5 min 4,8 UV-I 740 W/m 16,1 km/h (3 Bft)
15.06.2021 15:10 25,2 C 24,9 C 25,2 C 48 % 1021,2 hPa 0,0 l/m 8,0 km/h (2 Bft) N 360 5 min 4,9 UV-I 782 W/m 16,1 km/h (3 Bft)
15.06.2021 15:05 24,9 C 24,6 C 24,9 C 48 % 1021,2 hPa 0,0 l/m 6,4 km/h (2 Bft) NW 315 5 min 5,3 UV-I 823 W/m 14,5 km/h (3 Bft)
15.06.2021 15:00 24,7 C 24,6 C 24,7 C 49 % 1021,2 hPa 0,0 l/m 8,0 km/h (2 Bft) NW 315 5 min 5,2 UV-I 853 W/m 14,5 km/h (3 Bft)
15.06.2021 14:55 24,7 C 24,7 C 25,1 C 49 % 1021,2 hPa 0,0 l/m 8,0 km/h (2 Bft) NW 315 0 min 4,8 UV-I 410 W/m 16,1 km/h (3 Bft)
15.06.2021 14:50 25,1 C 24,8 C 25,1 C 48 % 1021,3 hPa 0,0 l/m 11,3 km/h (2 Bft) N-NO 22 5 min 5,1 UV-I 793 W/m 19,3 km/h (3 Bft)
15.06.2021 14:45 24,8 C 24,7 C 24,8 C 50 % 1021,3 hPa 0,0 l/m 9,7 km/h (2 Bft) N 360 5 min 5,3 UV-I 788 W/m 17,7 km/h (3 Bft)
15.06.2021 14:40 24,7 C 24,7 C 24,8 C 49 % 1021,2 hPa 0,0 l/m 9,7 km/h (2 Bft) NW 315 5 min 5,5 UV-I 821 W/m 19,3 km/h (3 Bft)
15.06.2021 14:35 24,8 C 24,7 C 24,9 C 49 % 1021,2 hPa 0,0 l/m 8,0 km/h (2 Bft) NW 315 5 min 5,5 UV-I 721 W/m 19,3 km/h (3 Bft)
15.06.2021 14:30 24,8 C 24,8 C 24,8 C 50 % 1021,3 hPa 0,0 l/m 8,0 km/h (2 Bft) N-NW 337 5 min 5,6 UV-I 830 W/m 17,7 km/h (3 Bft)
15.06.2021 14:25 24,8 C 24,7 C 24,8 C 49 % 1021,3 hPa 0,0 l/m 9,7 km/h (2 Bft) N 360 5 min 5,8 UV-I 860 W/m 22,5 km/h (4 Bft)
15.06.2021 14:20 24,7 C 24,6 C 24,7 C 50 % 1021,3 hPa 0,0 l/m 8,0 km/h (2 Bft) N-NO 22 5 min 5,8 UV-I 884 W/m 16,1 km/h (3 Bft)
15.06.2021 14:15 24,6 C 24,5 C 24,6 C 49 % 1021,3 hPa 0,0 l/m 8,0 km/h (2 Bft) N-NO 22 5 min 5,9 UV-I 773 W/m 14,5 km/h (3 Bft)
15.06.2021 14:10 24,5 C 24,3 C 24,5 C 50 % 1021,3 hPa 0,0 l/m 9,7 km/h (2 Bft) N-NO 22 5 min 4,8 UV-I 580 W/m 19,3 km/h (3 Bft)
15.06.2021 14:05 24,3 C 24,3 C 24,4 C 53 % 1021,3 hPa 0,0 l/m 6,4 km/h (2 Bft) N 360 5 min 5,0 UV-I 719 W/m 17,7 km/h (3 Bft)
15.06.2021 14:00 24,4 C 24,4 C 24,6 C 56 % 1021,3 hPa 0,0 l/m 6,4 km/h (2 Bft) W-NW 292 5 min 5,4 UV-I 838 W/m 14,5 km/h (3 Bft)
15.06.2021 13:55 24,4 C 24,2 C 24,4 C 52 % 1021,3 hPa 0,0 l/m 11,3 km/h (2 Bft) N-NO 22 5 min 5,0 UV-I 722 W/m 19,3 km/h (3 Bft)
15.06.2021 13:50 24,2 C 24,2 C 24,3 C 52 % 1021,3 hPa 0,0 l/m 8,0 km/h (2 Bft) N-NW 337 5 min 4,4 UV-I 561 W/m 19,3 km/h (3 Bft)
15.06.2021 13:45 24,2 C 24,2 C 24,3 C 55 % 1021,4 hPa 0,0 l/m 8,0 km/h (2 Bft) N-NW 337 5 min 5,1 UV-I 719 W/m 16,1 km/h (3 Bft)
15.06.2021 13:40 24,2 C 24,2 C 24,3 C 52 % 1021,5 hPa 0,0 l/m 9,7 km/h (2 Bft) N-NW 337 5 min 6,2 UV-I 819 W/m 19,3 km/h (3 Bft)
15.06.2021 13:35 24,2 C 24,1 C 24,3 C 54 % 1021,4 hPa 0,0 l/m 6,4 km/h (2 Bft) NW 315 5 min 6,0 UV-I 912 W/m 20,9 km/h (4 Bft)
15.06.2021 13:30 24,0 C 23,8 C 24,0 C 55 % 1021,4 hPa 0,0 l/m 9,7 km/h (2 Bft) N-NO 22 5 min 5,8 UV-I 853 W/m 17,7 km/h (3 Bft)
15.06.2021 13:25 23,8 C 23,7 C 23,9 C 55 % 1021,4 hPa 0,0 l/m 9,7 km/h (2 Bft) NW 315 5 min 5,8 UV-I 830 W/m 19,3 km/h (3 Bft)
15.06.2021 13:20 23,7 C 23,7 C 23,8 C 56 % 1021,4 hPa 0,0 l/m 8,0 km/h (2 Bft) N-NW 337 5 min 5,8 UV-I 821 W/m 19,3 km/h (3 Bft)
15.06.2021 13:15 23,8 C 23,4 C 23,8 C 56 % 1021,4 hPa 0,0 l/m 8,0 km/h (2 Bft) N-NO 22 5 min 5,6 UV-I 793 W/m 17,7 km/h (3 Bft)
15.06.2021 13:10 23,4 C 23,4 C 23,5 C 54 % 1021,5 hPa 0,0 l/m 9,7 km/h (2 Bft) N 360 5 min 5,7 UV-I 824 W/m 19,3 km/h (3 Bft)
15.06.2021 13:05 23,5 C 23,3 C 23,5 C 55 % 1021,5 hPa 0,0 l/m 9,7 km/h (2 Bft) N-NO 22 5 min 5,7 UV-I 831 W/m 17,7 km/h (3 Bft)
15.06.2021 13:00 23,3 C 23,2 C 23,3 C 54 % 1021,5 hPa 0,0 l/m 6,4 km/h (2 Bft) N-NO 22 5 min 5,6 UV-I 789 W/m 14,5 km/h (3 Bft)
15.06.2021 12:55 23,2 C 23,2 C 23,3 C 57 % 1021,6 hPa 0,0 l/m 8,0 km/h (2 Bft) NO 45 5 min 4,9 UV-I 698 W/m 14,5 km/h (3 Bft)
15.06.2021 12:50 23,2 C 22,9 C 23,2 C 59 % 1021,6 hPa 0,0 l/m 6,4 km/h (2 Bft) N-NO 22 5 min 4,2 UV-I 515 W/m 14,5 km/h (3 Bft)
15.06.2021 12:45 23,0 C 22,9 C 23,0 C 62 % 1021,7 hPa 0,0 l/m 6,4 km/h (2 Bft) W-NW 292 5 min 5,5 UV-I 497 W/m 16,1 km/h (3 Bft)
15.06.2021 12:40 23,0 C 23,0 C 23,3 C 62 % 1021,6 hPa 0,0 l/m 8,0 km/h (2 Bft) NW 315 5 min 4,5 UV-I 471 W/m 19,3 km/h (3 Bft)
15.06.2021 12:35 23,2 C 23,2 C 23,3 C 63 % 1021,7 hPa 0,0 l/m 6,4 km/h (2 Bft) W-NW 292 5 min 5,4 UV-I 807 W/m 16,1 km/h (3 Bft)
15.06.2021 12:30 23,2 C 23,1 C 23,2 C 63 % 1021,7 hPa 0,0 l/m 8,0 km/h (2 Bft) NW 315 5 min 5,4 UV-I 814 W/m 19,3 km/h (3 Bft)
15.06.2021 12:25 23,1 C 22,9 C 23,1 C 62 % 1021,8 hPa 0,0 l/m 4,8 km/h (1 Bft) NW 315 5 min 5,3 UV-I 765 W/m 12,9 km/h (3 Bft)
15.06.2021 12:20 23,0 C 22,9 C 23,0 C 62 % 1021,8 hPa 0,0 l/m 6,4 km/h (2 Bft) W-NW 292 5 min 5,4 UV-I 765 W/m 11,3 km/h (2 Bft)
15.06.2021 12:15 22,9 C 22,9 C 23,2 C 61 % 1022,0 hPa 0,0 l/m 8,0 km/h (2 Bft) NW 315 5 min 5,0 UV-I 756 W/m 16,1 km/h (3 Bft)
15.06.2021 12:10 23,2 C 23,1 C 23,2 C 60 % 1021,8 hPa 0,0 l/m 6,4 km/h (2 Bft) N-NW 337 5 min 5,1 UV-I 759 W/m 14,5 km/h (3 Bft)
15.06.2021 12:05 23,2 C 23,0 C 23,2 C 59 % 1021,8 hPa 0,0 l/m 8,0 km/h (2 Bft) NO 45 5 min 5,0 UV-I 742 W/m 16,1 km/h (3 Bft)
15.06.2021 12:00 22,9 C 22,8 C 22,9 C 62 % 1021,8 hPa 0,0 l/m 8,0 km/h (2 Bft) NO 45 5 min 4,7 UV-I 684 W/m 14,5 km/h (3 Bft)
15.06.2021 11:55 22,8 C 22,7 C 22,8 C 61 % 1021,8 hPa 0,0 l/m 6,4 km/h (2 Bft) W-NW 292 5 min 4,8 UV-I 700 W/m 14,5 km/h (3 Bft)
15.06.2021 11:50 22,7 C 22,6 C 22,7 C 62 % 1021,7 hPa 0,0 l/m 4,8 km/h (1 Bft) NO 45 5 min 4,7 UV-I 701 W/m 14,5 km/h (3 Bft)
15.06.2021 11:45 22,7 C 22,6 C 22,7 C 61 % 1021,7 hPa 0,0 l/m 6,4 km/h (2 Bft) N-NW 337 5 min 4,7 UV-I 703 W/m 14,5 km/h (3 Bft)
15.06.2021 11:40 22,6 C 22,3 C 22,6 C 62 % 1021,7 hPa 0,0 l/m 6,4 km/h (2 Bft) N-NO 22 5 min 4,6 UV-I 728 W/m 12,9 km/h (3 Bft)
15.06.2021 11:35 22,3 C 22,1 C 22,3 C 65 % 1021,7 hPa 0,0 l/m 4,8 km/h (1 Bft) N-NW 337 5 min 4,8 UV-I 751 W/m 11,3 km/h (2 Bft)
15.06.2021 11:30 22,1 C 22,1 C 22,2 C 64 % 1021,8 hPa 0,0 l/m 8,0 km/h (2 Bft) N 360 5 min 4,6 UV-I 671 W/m 16,1 km/h (3 Bft)
15.06.2021 11:25 22,2 C 22,2 C 22,4 C 64 % 1021,7 hPa 0,0 l/m 8,0 km/h (2 Bft) N-NO 22 5 min 4,1 UV-I 448 W/m 14,5 km/h (3 Bft)
15.06.2021 11:20 22,4 C 22,2 C 22,4 C 64 % 1021,7 hPa 0,0 l/m 6,4 km/h (2 Bft) NO 45 5 min 4,1 UV-I 629 W/m 14,5 km/h (3 Bft)
15.06.2021 11:15 22,2 C 22,1 C 22,2 C 63 % 1021,8 hPa 0,0 l/m 6,4 km/h (2 Bft) N 360 5 min 3,5 UV-I 450 W/m 16,1 km/h (3 Bft)
15.06.2021 11:10 22,1 C 21,9 C 22,1 C 63 % 1021,7 hPa 0,0 l/m 6,4 km/h (2 Bft) N-NO 22 5 min 4,2 UV-I 673 W/m 16,1 km/h (3 Bft)
15.06.2021 11:05 21,9 C 21,9 C 22,0 C 65 % 1021,6 hPa 0,0 l/m 6,4 km/h (2 Bft) NW 315 5 min 4,2 UV-I 684 W/m 14,5 km/h (3 Bft)
15.06.2021 11:00 22,0 C 21,8 C 22,0 C 66 % 1021,6 hPa 0,0 l/m 6,4 km/h (2 Bft) N-NW 337 5 min 4,1 UV-I 679 W/m 12,9 km/h (3 Bft)
15.06.2021 10:55 21,8 C 21,6 C 21,8 C 67 % 1021,6 hPa 0,0 l/m 6,4 km/h (2 Bft) NO 45 5 min 4,0 UV-I 647 W/m 12,9 km/h (3 Bft)
15.06.2021 10:50 21,6 C 21,6 C 21,6 C 67 % 1021,7 hPa 0,0 l/m 6,4 km/h (2 Bft) N 360 5 min 4,1 UV-I 689 W/m 14,5 km/h (3 Bft)
15.06.2021 10:45 21,6 C 21,4 C 21,6 C 67 % 1021,7 hPa 0,0 l/m 8,0 km/h (2 Bft) N 360 5 min 3,9 UV-I 680 W/m 14,5 km/h (3 Bft)
15.06.2021 10:40 21,4 C 21,4 C 21,6 C 67 % 1021,7 hPa 0,0 l/m 8,0 km/h (2 Bft) N 360 5 min 3,9 UV-I 682 W/m 14,5 km/h (3 Bft)
15.06.2021 10:35 21,6 C 21,6 C 21,7 C 67 % 1021,6 hPa 0,0 l/m 6,4 km/h (2 Bft) N-NO 22 0 min 3,8 UV-I 287 W/m 14,5 km/h (3 Bft)
15.06.2021 10:30 21,7 C 21,6 C 21,7 C 66 % 1021,6 hPa 0,0 l/m 4,8 km/h (1 Bft) NO 45 0 min 3,4 UV-I 309 W/m 9,7 km/h (2 Bft)
15.06.2021 10:25 21,6 C 21,4 C 21,6 C 67 % 1021,7 hPa 0,0 l/m 6,4 km/h (2 Bft) N-NO 22 0 min 3,7 UV-I 371 W/m 14,5 km/h (3 Bft)
15.06.2021 10:20 21,4 C 21,3 C 21,4 C 69 % 1021,7 hPa 0,0 l/m 4,8 km/h (1 Bft) N-NW 337 5 min 3,3 UV-I 564 W/m 9,7 km/h (2 Bft)
15.06.2021 10:15 21,3 C 21,3 C 21,4 C 68 % 1021,8 hPa 0,0 l/m 4,8 km/h (1 Bft) N 360 5 min 3,3 UV-I 568 W/m 11,3 km/h (2 Bft)
15.06.2021 10:10 21,4 C 21,3 C 21,5 C 67 % 1021,9 hPa 0,0 l/m 6,4 km/h (2 Bft) N-NO 22 5 min 2,6 UV-I 425 W/m 12,9 km/h (3 Bft)
15.06.2021 10:05 21,4 C 21,3 C 21,4 C 67 % 1021,9 hPa 0,0 l/m 6,4 km/h (2 Bft) NO 45 5 min 2,5 UV-I 403 W/m 12,9 km/h (3 Bft)
15.06.2021 10:00 21,3 C 21,2 C 21,3 C 67 % 1022,0 hPa 0,0 l/m 8,0 km/h (2 Bft) N 360 5 min 2,3 UV-I 378 W/m 14,5 km/h (3 Bft)
15.06.2021 09:55 21,2 C 21,1 C 21,2 C 67 % 1021,8 hPa 0,0 l/m 8,0 km/h (2 Bft) N-NO 22 5 min 2,6 UV-I 503 W/m 12,9 km/h (3 Bft)
15.06.2021 09:50 21,1 C 21,1 C 21,1 C 68 % 1021,9 hPa 0,0 l/m 8,0 km/h (2 Bft) N 360 5 min 2,7 UV-I 533 W/m 17,7 km/h (3 Bft)
15.06.2021 09:45 21,1 C 20,8 C 21,1 C 69 % 1021,8 hPa 0,0 l/m 8,0 km/h (2 Bft) N-NO 22 5 min 3,0 UV-I 624 W/m 17,7 km/h (3 Bft)
15.06.2021 09:40 20,8 C 20,7 C 20,8 C 70 % 1021,7 hPa 0,0 l/m 6,4 km/h (2 Bft) N-NO 22 5 min 2,8 UV-I 541 W/m 16,1 km/h (3 Bft)
15.06.2021 09:35 20,7 C 20,7 C 20,8 C 69 % 1021,7 hPa 0,0 l/m 8,0 km/h (2 Bft) N 360 5 min 2,5 UV-I 459 W/m 14,5 km/h (3 Bft)
15.06.2021 09:30 20,7 C 20,4 C 20,7 C 70 % 1021,8 hPa 0,0 l/m 6,4 km/h (2 Bft) NO 45 5 min 2,4 UV-I 464 W/m 16,1 km/h (3 Bft)
15.06.2021 09:25 20,3 C 20,2 C 20,3 C 72 % 1021,6 hPa 0,0 l/m 4,8 km/h (1 Bft) NO 45 5 min 2,4 UV-I 464 W/m 9,7 km/h (2 Bft)
15.06.2021 09:20 20,2 C 20,1 C 20,2 C 71 % 1021,7 hPa 0,0 l/m 9,7 km/h (2 Bft) N-NO 22 5 min 2,3 UV-I 452 W/m 16,1 km/h (3 Bft)
15.06.2021 09:15 20,1 C 19,9 C 20,1 C 72 % 1021,7 hPa 0,0 l/m 6,4 km/h (2 Bft) N-NO 22 5 min 2,2 UV-I 439 W/m 14,5 km/h (3 Bft)
15.06.2021 09:10 19,9 C 19,8 C 19,9 C 72 % 1021,8 hPa 0,0 l/m 9,7 km/h (2 Bft) N-NO 22 5 min 2,1 UV-I 427 W/m 17,7 km/h (3 Bft)
15.06.2021 09:05 19,8 C 19,7 C 19,8 C 73 % 1021,7 hPa 0,0 l/m 8,0 km/h (2 Bft) N-NO 22 5 min 2,0 UV-I 415 W/m 16,1 km/h (3 Bft)
15.06.2021 09:00 19,7 C 19,7 C 19,7 C 73 % 1021,7 hPa 0,0 l/m 8,0 km/h (2 Bft) N 360 5 min 1,9 UV-I 399 W/m 12,9 km/h (3 Bft)
15.06.2021 08:55 19,7 C 19,5 C 19,7 C 74 % 1021,6 hPa 0,0 l/m 8,0 km/h (2 Bft) N 360 5 min 1,8 UV-I 383 W/m 16,1 km/h (3 Bft)
15.06.2021 08:50 19,5 C 19,4 C 19,5 C 74 % 1021,7 hPa 0,0 l/m 8,0 km/h (2 Bft) N-NO 22 5 min 1,8 UV-I 380 W/m 14,5 km/h (3 Bft)
15.06.2021 08:45 19,4 C 19,2 C 19,4 C 75 % 1021,7 hPa 0,0 l/m 6,4 km/h (2 Bft) N-NW 337 5 min 1,7 UV-I 369 W/m 12,9 km/h (3 Bft)
15.06.2021 08:40 19,2 C 19,2 C 19,3 C 74 % 1021,6 hPa 0,0 l/m 11,3 km/h (2 Bft) N-NO 22 5 min 1,6 UV-I 359 W/m 17,7 km/h (3 Bft)
15.06.2021 08:35 19,3 C 19,2 C 19,3 C 74 % 1021,5 hPa 0,0 l/m 9,7 km/h (2 Bft) N-NO 22 5 min 1,6 UV-I 357 W/m 14,5 km/h (3 Bft)
15.06.2021 08:30 19,2 C 19,0 C 19,2 C 75 % 1021,6 hPa 0,0 l/m 6,4 km/h (2 Bft) N-NO 22 5 min 1,5 UV-I 359 W/m 14,5 km/h (3 Bft)
15.06.2021 08:25 19,0 C 18,9 C 19,0 C 75 % 1021,5 hPa 0,0 l/m 8,0 km/h (2 Bft) N-NO 22 5 min 1,3 UV-I 290 W/m 14,5 km/h (3 Bft)
15.06.2021 08:20 19,0 C 18,9 C 19,0 C 77 % 1021,5 hPa 0,0 l/m 4,8 km/h (1 Bft) N 360 5 min 1,2 UV-I 279 W/m 12,9 km/h (3 Bft)
15.06.2021 08:15 18,9 C 18,8 C 18,9 C 76 % 1021,4 hPa 0,0 l/m 6,4 km/h (2 Bft) N-NO 22 5 min 1,3 UV-I 318 W/m 16,1 km/h (3 Bft)
15.06.2021 08:10 18,8 C 18,6 C 18,8 C 77 % 1021,4 hPa 0,0 l/m 8,0 km/h (2 Bft) N-NO 22 5 min 1,2 UV-I 283 W/m 17,7 km/h (3 Bft)
15.06.2021 08:05 18,6 C 18,5 C 18,6 C 77 % 1021,3 hPa 0,0 l/m 6,4 km/h (2 Bft) N-NO 22 5 min 1,1 UV-I 253 W/m 12,9 km/h (3 Bft)
15.06.2021 08:00 18,5 C 18,4 C 18,5 C 77 % 1021,2 hPa 0,0 l/m 3,2 km/h (1 Bft) N-NO 22 5 min 1,0 UV-I 230 W/m 8,0 km/h (2 Bft)
15.06.2021 07:55 18,4 C 18,2 C 18,4 C 78 % 1021,2 hPa 0,0 l/m 4,8 km/h (1 Bft) N-NO 22 5 min 1,0 UV-I 214 W/m 8,0 km/h (2 Bft)
15.06.2021 07:50 18,2 C 18,0 C 18,2 C 79 % 1021,1 hPa 0,0 l/m 6,4 km/h (2 Bft) NO 45 5 min 0,9 UV-I 190 W/m 12,9 km/h (3 Bft)
15.06.2021 07:45 18,0 C 17,9 C 18,0 C 79 % 1021,2 hPa 0,0 l/m 4,8 km/h (1 Bft) N-NO 22 0 min 0,8 UV-I 176 W/m 11,3 km/h (2 Bft)
15.06.2021 07:40 17,9 C 17,8 C 17,9 C 79 % 1021,1 hPa 0,0 l/m 4,8 km/h (1 Bft) NO 45 0 min 0,7 UV-I 160 W/m 11,3 km/h (2 Bft)
15.06.2021 07:35 17,8 C 17,7 C 17,8 C 80 % 1021,1 hPa 0,0 l/m 6,4 km/h (2 Bft) N-NO 22 0 min 0,7 UV-I 151 W/m 16,1 km/h (3 Bft)
15.06.2021 07:30 17,7 C 17,6 C 17,7 C 80 % 1021,0 hPa 0,0 l/m 6,4 km/h (2 Bft) NO 45 0 min 0,6 UV-I 135 W/m 11,3 km/h (2 Bft)
15.06.2021 07:25 17,6 C 17,6 C 17,6 C 80 % 1021,1 hPa 0,0 l/m 8,0 km/h (2 Bft) NO 45 0 min 0,6 UV-I 137 W/m 17,7 km/h (3 Bft)
15.06.2021 07:20 17,6 C 17,5 C 17,6 C 80 % 1021,1 hPa 0,0 l/m 6,4 km/h (2 Bft) N-NO 22 0 min 0,5 UV-I 123 W/m 12,9 km/h (3 Bft)
15.06.2021 07:15 17,5 C 17,4 C 17,5 C 82 % 1021,2 hPa 0,0 l/m 4,8 km/h (1 Bft) N-NO 22 0 min 0,5 UV-I 97 W/m 8,0 km/h (2 Bft)
15.06.2021 07:10 17,5 C 17,5 C 17,6 C 82 % 1021,2 hPa 0,0 l/m 4,8 km/h (1 Bft) NO 45 0 min 0,0 UV-I 77 W/m 12,9 km/h (3 Bft)
15.06.2021 07:05 17,5 C 17,4 C 17,6 C 81 % 1021,2 hPa 0,0 l/m 6,4 km/h (2 Bft) N-NO 22 0 min 0,0 UV-I 76 W/m 14,5 km/h (3 Bft)
15.06.2021 07:00 17,4 C 17,4 C 17,5 C 81 % 1021,2 hPa 0,0 l/m 9,7 km/h (2 Bft) N-NO 22 0 min 0,0 UV-I 72 W/m 16,1 km/h (3 Bft)
15.06.2021 06:55 17,4 C 17,4 C 17,5 C 81 % 1021,1 hPa 0,0 l/m 8,0 km/h (2 Bft) N-NO 22 0 min 0,0 UV-I 70 W/m 14,5 km/h (3 Bft)
15.06.2021 06:50 17,4 C 17,4 C 17,5 C 81 % 1021,0 hPa 0,0 l/m 6,4 km/h (2 Bft) N 360 0 min 0,0 UV-I 63 W/m 12,9 km/h (3 Bft)
15.06.2021 06:45 17,4 C 17,3 C 17,4 C 81 % 1020,9 hPa 0,0 l/m 6,4 km/h (2 Bft) N-NO 22 0 min 0,0 UV-I 65 W/m 14,5 km/h (3 Bft)
15.06.2021 06:40 17,3 C 17,3 C 17,3 C 81 % 1021,0 hPa 0,0 l/m 9,7 km/h (2 Bft) N-NO 22 0 min 0,0 UV-I 67 W/m 17,7 km/h (3 Bft)
15.06.2021 06:35 17,3 C 17,3 C 17,3 C 82 % 1021,0 hPa 0,0 l/m 9,7 km/h (2 Bft) N-NO 22 0 min 0,0 UV-I 58 W/m 14,5 km/h (3 Bft)
15.06.2021 06:30 17,3 C 17,2 C 17,3 C 82 % 1020,9 hPa 0,0 l/m 6,4 km/h (2 Bft) N-NO 22 0 min 0,0 UV-I 51 W/m 14,5 km/h (3 Bft)
15.06.2021 06:25 17,2 C 17,2 C 17,3 C 83 % 1020,9 hPa 0,0 l/m 6,4 km/h (2 Bft) NO 45 0 min 0,0 UV-I 46 W/m 16,1 km/h (3 Bft)
15.06.2021 06:20 17,2 C 17,2 C 17,2 C 83 % 1021,0 hPa 0,0 l/m 8,0 km/h (2 Bft) N-NO 22 0 min 0,0 UV-I 40 W/m 16,1 km/h (3 Bft)
15.06.2021 06:15 17,2 C 17,2 C 17,2 C 83 % 1020,9 hPa 0,0 l/m 6,4 km/h (2 Bft) N-NO 22 0 min 0,0 UV-I 37 W/m 14,5 km/h (3 Bft)
15.06.2021 06:10 17,2 C 17,2 C 17,2 C 83 % 1020,9 hPa 0,0 l/m 6,4 km/h (2 Bft) N-NO 22 0 min 0,0 UV-I 33 W/m 14,5 km/h (3 Bft)
15.06.2021 06:05 17,2 C 17,2 C 17,2 C 83 % 1020,8 hPa 0,0 l/m 6,4 km/h (2 Bft) N-NO 22 0 min 0,0 UV-I 30 W/m 11,3 km/h (2 Bft)
15.06.2021 06:00 17,2 C 17,2 C 17,3 C 83 % 1020,7 hPa 0,0 l/m 6,4 km/h (2 Bft) N-NO 22 0 min 0,0 UV-I 26 W/m 11,3 km/h (2 Bft)
15.06.2021 05:55 17,2 C 17,2 C 17,3 C 82 % 1020,6 hPa 0,0 l/m 4,8 km/h (1 Bft) N-NO 22 0 min 0,0 UV-I 23 W/m 8,0 km/h (2 Bft)
15.06.2021 05:50 17,2 C 17,2 C 17,3 C 82 % 1020,5 hPa 0,0 l/m 6,4 km/h (2 Bft) N-NO 22 0 min 0,0 UV-I 19 W/m 14,5 km/h (3 Bft)
15.06.2021 05:45 17,3 C 17,3 C 17,3 C 82 % 1020,4 hPa 0,0 l/m 6,4 km/h (2 Bft) NO 45 0 min 0,0 UV-I 16 W/m 11,3 km/h (2 Bft)
15.06.2021 05:40 17,3 C 17,3 C 17,4 C 82 % 1020,5 hPa 0,0 l/m 4,8 km/h (1 Bft) N 360 0 min 0,0 UV-I 12 W/m 11,3 km/h (2 Bft)
15.06.2021 05:35 17,3 C 17,3 C 17,4 C 82 % 1020,5 hPa 0,0 l/m 4,8 km/h (1 Bft) N-NO 22 0 min 0,0 UV-I 7 W/m 11,3 km/h (2 Bft)
15.06.2021 05:30 17,4 C 17,3 C 17,4 C 82 % 1020,4 hPa 0,0 l/m 6,4 km/h (2 Bft) N-NO 22 0 min 0,0 UV-I 5 W/m 12,9 km/h (3 Bft)
15.06.2021 05:25 17,4 C 17,4 C 17,4 C 81 % 1020,3 hPa 0,0 l/m 8,0 km/h (2 Bft) N-NO 22 0 min 0,0 UV-I 0 W/m 14,5 km/h (3 Bft)
15.06.2021 05:20 17,4 C 17,3 C 17,4 C 82 % 1020,3 hPa 0,0 l/m 6,4 km/h (2 Bft) NO 45 0 min 0,0 UV-I 0 W/m 11,3 km/h (2 Bft)
15.06.2021 05:15 17,3 C 17,3 C 17,4 C 82 % 1020,3 hPa 0,0 l/m 6,4 km/h (2 Bft) N-NO 22 0 min 0,0 UV-I 0 W/m 14,5 km/h (3 Bft)
15.06.2021 05:10 17,3 C 17,2 C 17,3 C 82 % 1020,3 hPa 0,0 l/m 6,4 km/h (2 Bft) N-NO 22 0 min 0,0 UV-I 0 W/m 12,9 km/h (3 Bft)
15.06.2021 05:05 17,2 C 17,1 C 17,2 C 83 % 1020,2 hPa 0,0 l/m 6,4 km/h (2 Bft) N-NO 22 0 min 0,0 UV-I 0 W/m 9,7 km/h (2 Bft)
15.06.2021 05:00 17,1 C 17,1 C 17,2 C 83 % 1020,1 hPa 0,0 l/m 6,4 km/h (2 Bft) N-NO 22 0 min 0,0 UV-I 0 W/m 12,9 km/h (3 Bft)
15.06.2021 04:55 17,1 C 17,1 C 17,1 C 83 % 1020,1 hPa 0,0 l/m 3,2 km/h (1 Bft) N-NO 22 0 min 0,0 UV-I 0 W/m 8,0 km/h (2 Bft)
15.06.2021 04:50 17,1 C 17,1 C 17,2 C 83 % 1020,0 hPa 0,0 l/m 4,8 km/h (1 Bft) N-NO 22 0 min 0,0 UV-I 0 W/m 6,4 km/h (2 Bft)
15.06.2021 04:45 17,2 C 17,2 C 17,2 C 83 % 1020,0 hPa 0,0 l/m 4,8 km/h (1 Bft) N-NO 22 0 min 0,0 UV-I 0 W/m 8,0 km/h (2 Bft)
15.06.2021 04:40 17,2 C 17,2 C 17,3 C 82 % 1020,1 hPa 0,0 l/m 3,2 km/h (1 Bft) N 360 0 min 0,0 UV-I 0 W/m 6,4 km/h (2 Bft)
15.06.2021 04:35 17,3 C 17,3 C 17,3 C 82 % 1020,0 hPa 0,0 l/m 4,8 km/h (1 Bft) N-NO 22 0 min 0,0 UV-I 0 W/m 6,4 km/h (2 Bft)
15.06.2021 04:30 17,3 C 17,3 C 17,4 C 82 % 1020,1 hPa 0,0 l/m 4,8 km/h (1 Bft) N 360 0 min 0,0 UV-I 0 W/m 8,0 km/h (2 Bft)
15.06.2021 04:25 17,3 C 17,3 C 17,4 C 82 % 1020,0 hPa 0,0 l/m 4,8 km/h (1 Bft) N-NO 22 0 min 0,0 UV-I 0 W/m 11,3 km/h (2 Bft)
15.06.2021 04:20 17,4 C 17,4 C 17,6 C 82 % 1020,1 hPa 0,0 l/m 4,8 km/h (1 Bft) N-NO 22 0 min 0,0 UV-I 0 W/m 11,3 km/h (2 Bft)
15.06.2021 04:15 17,6 C 17,5 C 17,6 C 81 % 1020,0 hPa 0,0 l/m 3,2 km/h (1 Bft) N-NO 22 0 min 0,0 UV-I 0 W/m 11,3 km/h (2 Bft)
15.06.2021 04:10 17,6 C 17,6 C 17,7 C 81 % 1020,1 hPa 0,0 l/m 4,8 km/h (1 Bft) N-NO 22 0 min 0,0 UV-I 0 W/m 8,0 km/h (2 Bft)
15.06.2021 04:05 17,7 C 17,7 C 17,7 C 81 % 1020,0 hPa 0,0 l/m 4,8 km/h (1 Bft) N-NO 22 0 min 0,0 UV-I 0 W/m 8,0 km/h (2 Bft)
15.06.2021 04:00 17,7 C 17,7 C 17,8 C 80 % 1020,1 hPa 0,0 l/m 4,8 km/h (1 Bft) N-NO 22 0 min 0,0 UV-I 0 W/m 11,3 km/h (2 Bft)
15.06.2021 03:55 17,7 C 17,7 C 17,8 C 80 % 1020,1 hPa 0,0 l/m 4,8 km/h (1 Bft) N 360 0 min 0,0 UV-I 0 W/m 8,0 km/h (2 Bft)
15.06.2021 03:50 17,8 C 17,8 C 17,8 C 80 % 1020,1 hPa 0,0 l/m 4,8 km/h (1 Bft) N-NO 22 0 min 0,0 UV-I 0 W/m 8,0 km/h (2 Bft)
15.06.2021 03:45 17,8 C 17,8 C 17,8 C 80 % 1020,0 hPa 0,0 l/m 3,2 km/h (1 Bft) NO 45 0 min 0,0 UV-I 0 W/m 6,4 km/h (2 Bft)
15.06.2021 03:40 17,8 C 17,8 C 17,8 C 80 % 1020,0 hPa 0,0 l/m 4,8 km/h (1 Bft) N-NO 22 0 min 0,0 UV-I 0 W/m 8,0 km/h (2 Bft)
15.06.2021 03:35 17,8 C 17,8 C 17,8 C 80 % 1020,0 hPa 0,0 l/m 4,8 km/h (1 Bft) N-NO 22 0 min 0,0 UV-I 0 W/m 8,0 km/h (2 Bft)
15.06.2021 03:30 17,8 C 17,8 C 17,9 C 79 % 1020,0 hPa 0,0 l/m 3,2 km/h (1 Bft) N-NO 22 0 min 0,0 UV-I 0 W/m 8,0 km/h (2 Bft)
15.06.2021 03:25 17,8 C 17,8 C 18,0 C 79 % 1020,0 hPa 0,0 l/m 0,0 km/h (0 Bft) N-NO 22 0 min 0,0 UV-I 0 W/m 4,8 km/h (1 Bft)
15.06.2021 03:20 17,9 C 17,9 C 18,0 C 78 % 1020,0 hPa 0,0 l/m 3,2 km/h (1 Bft) N-NO 22 0 min 0,0 UV-I 0 W/m 6,4 km/h (2 Bft)
15.06.2021 03:15 18,0 C 18,0 C 18,1 C 78 % 1019,9 hPa 0,0 l/m 3,2 km/h (1 Bft) N-NO 22 0 min 0,0 UV-I 0 W/m 8,0 km/h (2 Bft)
15.06.2021 03:10 18,0 C 18,0 C 18,1 C 78 % 1020,0 hPa 0,0 l/m 3,2 km/h (1 Bft) N-NO 22 0 min 0,0 UV-I 0 W/m 6,4 km/h (2 Bft)
15.06.2021 03:05 18,1 C 18,1 C 18,2 C 78 % 1020,0 hPa 0,0 l/m 3,2 km/h (1 Bft) N-NO 22 0 min 0,0 UV-I 0 W/m 6,4 km/h (2 Bft)
15.06.2021 03:00 18,1 C 18,1 C 18,2 C 78 % 1019,9 hPa 0,0 l/m 3,2 km/h (1 Bft) N 360 0 min 0,0 UV-I 0 W/m 6,4 km/h (2 Bft)
15.06.2021 02:55 18,2 C 18,2 C 18,3 C 78 % 1019,9 hPa 0,0 l/m 3,2 km/h (1 Bft) N 360 0 min 0,0 UV-I 0 W/m 6,4 km/h (2 Bft)
15.06.2021 02:50 18,3 C 18,3 C 18,4 C 77 % 1019,9 hPa 0,0 l/m 3,2 km/h (1 Bft) N 360 0 min 0,0 UV-I 0 W/m 6,4 km/h (2 Bft)
15.06.2021 02:45 18,4 C 18,3 C 18,4 C 77 % 1019,9 hPa 0,0 l/m 4,8 km/h (1 Bft) N-NO 22 0 min 0,0 UV-I 0 W/m 8,0 km/h (2 Bft)
15.06.2021 02:40 18,4 C 18,3 C 18,4 C 77 % 1019,9 hPa 0,0 l/m 3,2 km/h (1 Bft) N 360 0 min 0,0 UV-I 0 W/m 6,4 km/h (2 Bft)
15.06.2021 02:35 18,4 C 18,4 C 18,6 C 76 % 1019,9 hPa 0,0 l/m 1,6 km/h (1 Bft) N 360 0 min 0,0 UV-I 0 W/m 6,4 km/h (2 Bft)
15.06.2021 02:30 18,6 C 18,6 C 18,6 C 76 % 1020,0 hPa 0,0 l/m 1,6 km/h (1 Bft) N 360 0 min 0,0 UV-I 0 W/m 4,8 km/h (1 Bft)
15.06.2021 02:25 18,6 C 18,6 C 18,6 C 76 % 1019,9 hPa 0,0 l/m 4,8 km/h (1 Bft) N-NO 22 0 min 0,0 UV-I 0 W/m 8,0 km/h (2 Bft)
15.06.2021 02:20 18,6 C 18,6 C 18,6 C 76 % 1019,9 hPa 0,0 l/m 0,0 km/h (0 Bft) N-NO 22 0 min 0,0 UV-I 0 W/m 6,4 km/h (2 Bft)
15.06.2021 02:15 18,6 C 18,6 C 18,7 C 76 % 1019,9 hPa 0,0 l/m 0,0 km/h (0 Bft) N 0 0 min 0,0 UV-I 0 W/m 0,0 km/h (0 Bft)
15.06.2021 02:10 18,7 C 18,7 C 18,8 C 76 % 1020,0 hPa 0,0 l/m 0,0 km/h (0 Bft) N 0 0 min 0,0 UV-I 0 W/m 0,0 km/h (0 Bft)
15.06.2021 02:05 18,8 C 18,8 C 18,9 C 75 % 1020,0 hPa 0,0 l/m 0,0 km/h (0 Bft) N 0 0 min 0,0 UV-I 0 W/m 0,0 km/h (0 Bft)
15.06.2021 02:00 18,9 C 18,9 C 19,1 C 74 % 1019,9 hPa 0,0 l/m 0,0 km/h (0 Bft) N 0 0 min 0,0 UV-I 0 W/m 0,0 km/h (0 Bft)
15.06.2021 01:55 19,1 C 19,1 C 19,2 C 74 % 1020,0 hPa 0,0 l/m 0,0 km/h (0 Bft) N 0 0 min 0,0 UV-I 0 W/m 0,0 km/h (0 Bft)
15.06.2021 01:50 19,2 C 19,2 C 19,3 C 73 % 1019,9 hPa 0,0 l/m 0,0 km/h (0 Bft) N 0 0 min 0,0 UV-I 0 W/m 0,0 km/h (0 Bft)
15.06.2021 01:45 19,3 C 19,3 C 19,4 C 73 % 1019,9 hPa 0,0 l/m 0,0 km/h (0 Bft) N 0 0 min 0,0 UV-I 0 W/m 0,0 km/h (0 Bft)
15.06.2021 01:40 19,3 C 19,3 C 19,4 C 73 % 1020,0 hPa 0,0 l/m 1,6 km/h (1 Bft) N 360 0 min 0,0 UV-I 0 W/m 6,4 km/h (2 Bft)
15.06.2021 01:35 19,5 C 19,4 C 19,6 C 72 % 1020,0 hPa 0,0 l/m 3,2 km/h (1 Bft) N-NO 22 0 min 0,0 UV-I 0 W/m 6,4 km/h (2 Bft)
15.06.2021 01:30 19,6 C 19,6 C 19,7 C 71 % 1020,0 hPa 0,0 l/m 3,2 km/h (1 Bft) N-NO 22 0 min 0,0 UV-I 0 W/m 6,4 km/h (2 Bft)
15.06.2021 01:25 19,7 C 19,7 C 19,9 C 71 % 1020,0 hPa 0,0 l/m 4,8 km/h (1 Bft) N-NO 22 0 min 0,0 UV-I 0 W/m 8,0 km/h (2 Bft)
15.06.2021 01:20 19,9 C 19,9 C 20,1 C 70 % 1020,0 hPa 0,0 l/m 3,2 km/h (1 Bft) N-NO 22 0 min 0,0 UV-I 0 W/m 4,8 km/h (1 Bft)
15.06.2021 01:15 20,1 C 20,1 C 20,3 C 70 % 1020,0 hPa 0,0 l/m 3,2 km/h (1 Bft) N-NO 22 0 min 0,0 UV-I 0 W/m 4,8 km/h (1 Bft)
15.06.2021 01:10 20,3 C 20,3 C 20,5 C 69 % 1019,9 hPa 0,0 l/m 3,2 km/h (1 Bft) N-NO 22 0 min 0,0 UV-I 0 W/m 4,8 km/h (1 Bft)
15.06.2021 01:05 20,5 C 20,5 C 20,6 C 68 % 1020,0 hPa 0,0 l/m 4,8 km/h (1 Bft) N-NO 22 0 min 0,0 UV-I 0 W/m 6,4 km/h (2 Bft)
15.06.2021 01:00 20,6 C 20,6 C 20,7 C 67 % 1019,9 hPa 0,0 l/m 3,2 km/h (1 Bft) N-NO 22 0 min 0,0 UV-I 0 W/m 6,4 km/h (2 Bft)
15.06.2021 00:55 20,7 C 20,7 C 20,8 C 67 % 1020,0 hPa 0,0 l/m 4,8 km/h (1 Bft) N-NO 22 0 min 0,0 UV-I 0 W/m 8,0 km/h (2 Bft)
15.06.2021 00:50 20,8 C 20,7 C 20,8 C 67 % 1020,0 hPa 0,0 l/m 3,2 km/h (1 Bft) N-NO 22 0 min 0,0 UV-I 0 W/m 8,0 km/h (2 Bft)
15.06.2021 00:45 20,8 C 20,8 C 20,9 C 66 % 1019,9 hPa 0,0 l/m 4,8 km/h (1 Bft) N-NO 22 0 min 0,0 UV-I 0 W/m 11,3 km/h (2 Bft)
15.06.2021 00:40 20,9 C 20,8 C 20,9 C 66 % 1019,9 hPa 0,0 l/m 6,4 km/h (2 Bft) N-NO 22 0 min 0,0 UV-I 0 W/m 16,1 km/h (3 Bft)
15.06.2021 00:35 20,9 C 20,9 C 21,0 C 66 % 1019,9 hPa 0,0 l/m 6,4 km/h (2 Bft) N-NO 22 0 min 0,0 UV-I 0 W/m 12,9 km/h (3 Bft)
15.06.2021 00:30 21,0 C 21,0 C 21,1 C 65 % 1020,0 hPa 0,0 l/m 8,0 km/h (2 Bft) N-NO 22 0 min 0,0 UV-I 0 W/m 16,1 km/h (3 Bft)
15.06.2021 00:25 21,1 C 21,1 C 21,1 C 65 % 1019,9 hPa 0,0 l/m 8,0 km/h (2 Bft) N-NO 22 0 min 0,0 UV-I 0 W/m 14,5 km/h (3 Bft)
15.06.2021 00:20 21,2 C 21,1 C 21,2 C 65 % 1019,9 hPa 0,0 l/m 8,0 km/h (2 Bft) N-NO 22 0 min 0,0 UV-I 0 W/m 12,9 km/h (3 Bft)
15.06.2021 00:15 21,2 C 21,2 C 21,3 C 64 % 1019,9 hPa 0,0 l/m 8,0 km/h (2 Bft) N-NO 22 0 min 0,0 UV-I 0 W/m 17,7 km/h (3 Bft)
15.06.2021 00:10 21,3 C 21,3 C 21,4 C 64 % 1019,9 hPa 0,0 l/m 8,0 km/h (2 Bft) N 360 0 min 0,0 UV-I 0 W/m 16,1 km/h (3 Bft)
15.06.2021 00:05 21,5 C 21,4 C 21,6 C 64 % 1020,0 hPa 0,0 l/m 9,7 km/h (2 Bft) N-NO 22 0 min 0,0 UV-I 0 W/m 19,3 km/h (3 Bft)
15.06.2021 00:00 21,6 C 21,6 C 21,7 C 63 % 1019,9 hPa 0,0 l/m 11,3 km/h (2 Bft) N-NO 22 0 min 0,0 UV-I 0 W/m 19,3 km/h (3 Bft)
_ Min-Zeit 04:50 04:50 04:55 16:20 20:10 - 01:45 - - - - - 01:45
Minimum _ 17,1 C 17,1 C 17,1 C 44 % 1019,3 hPa - 0,0 km/h (0 Bft) - - - - - 0,0 km/h (0 Bft)
_ Max-Zeit 16:25 18:05 16:25 04:45 10:00 00:00 00:00 - - 07:50 13:40 13:35 14:25
Maximum _ 26,1 C 26,0 C 26,1 C 83 % 1022,0 hPa 0,0 l/m 11,3 km/h
N-NO (2 Bft)
- - 5 min 6,2 UV-I 912 W/m 22,5 km/h
N-NO (4 Bft)
Durchschnitt _ 21,7 C 21,6 C 21,7 C 64 % 1020,6 hPa #0,0 l/m 6,2 km/h (2 Bft) N-NO - #12:35 h 3,2 UV-I 419 W/m 13,1 km/h (3 Bft)